Unser Flugplatzteam

Segelflugzeugschlepp am Flugplatz Konstanz

Unsere freundlichen Mitarbeiter stehen Ihnen gerne mit Rat und Tat zur Seite:

Robert Leitner

Flugleiter, Landesbeauftragter für Luftaufsicht am Verkehrlandeplatz Konstanz

Minky Schweizer

Flugleiterin

Live am Platz

Die Bilder unserer Webcams werden alle 5 Minuten aktualisiert.

Sonnenaufgang:

06:58 UTC / 07:58 Lokal

Sonnenuntergang:

16:12 UTC / 17:12 Lokal

METAR (23.01.2021 16:50 UTC):

EDNY 231650Z AUTO 03005KT 350V060 9999 // FEW053/// BKN072/// OVC088/// 02/M00 Q0995
VFR

TAF (23.01.2021 11:00 UTC):

TAF EDNY 231100Z 2312/2412 VRB03KT 9999 FEW050 PROB30 TEMPO 2315/2324 4000 -SNRA BECMG 2320/2322 25005KT BECMG 2400/2403 25010KT TEMPO 2400/2408 25015G25KT 3000 SHSN BKN012TCU

Alle Angaben unverbindlich und ohne Gewähr. Zeiten genähert.

Für den Verkehrslandeplatz Konstanz werden keine offiziellen Wetterinformationen ausgegeben. Daher werden zur Orientierung Daten des nahegelegenen Flughafens Friedrichshafen dargestellt.